Time;durP1;ratioP1;P1;durP2;ratioP2;P2;SDS_P1;SDS_P2;PMS_P1;PMS_P2;Temp;Humidity;BMP_temperature;BMP_pressure;BME280_temperature;BME280_humidity;BME280_pressure;Samples;Min_cycle;Max_cycle;Signal;HPM_P1;HPM_P2
2022/03/10 00:00:09;;;;;;;2.47;2.27;;;25.70;37.80;;;;;;5054876;28;20441;-83
2022/03/10 00:02:36;;;;;;;2.57;2.30;;;25.60;37.70;;;;;;5055217;28;20448;-83
2022/03/10 00:05:03;;;;;;;2.60;2.40;;;25.60;37.70;;;;;;5054831;28;20437;-82
2022/03/10 00:07:29;;;;;;;2.73;2.53;;;25.70;37.80;;;;;;5054395;28;20486;-82
2022/03/10 00:09:56;;;;;;;2.60;2.40;;;25.60;37.70;;;;;;5054880;28;20438;-90
2022/03/10 00:12:23;;;;;;;2.33;2.23;;;25.60;37.70;;;;;;5054561;28;20430;-83
2022/03/10 00:14:51;;;;;;;2.73;2.53;;;25.60;37.70;;;;;;5054295;28;20449;-83
2022/03/10 00:17:18;;;;;;;2.83;2.60;;;25.70;37.80;;;;;;5054136;28;20441;-83
2022/03/10 00:19:45;;;;;;;2.13;2.03;;;25.60;37.70;;;;;;5054627;28;20542;-82
2022/03/10 00:22:12;;;;;;;2.70;2.50;;;25.60;38.40;;;;;;5054442;28;20438;-83
2022/03/10 00:24:39;;;;;;;2.80;2.60;;;25.60;37.80;;;;;;5054314;28;20448;-83
2022/03/10 00:27:06;;;;;;;2.93;2.50;;;25.60;37.80;;;;;;5054054;28;20489;-83
2022/03/10 00:29:33;;;;;;;2.50;2.30;;;25.60;37.80;;;;;;5054207;28;20446;-89
2022/03/10 00:32:01;;;;;;;2.40;2.30;;;25.60;37.80;;;;;;5054121;28;20442;-84
2022/03/10 00:34:28;;;;;;;2.93;2.43;;;25.60;37.80;;;;;;5053752;28;20500;-82
2022/03/10 00:36:55;;;;;;;2.60;2.40;;;25.60;37.80;;;;;;5054203;28;20465;-82
2022/03/10 00:39:22;;;;;;;2.30;2.10;;;25.60;37.80;;;;;;5053977;28;20442;-90
2022/03/10 00:41:48;;;;;;;2.80;2.60;;;25.60;37.80;;;;;;5054265;28;20449;-83
2022/03/10 00:44:16;;;;;;;2.47;2.27;;;25.60;37.80;;;;;;5054251;28;20448;-82
2022/03/10 00:46:43;;;;;;;2.30;2.10;;;25.50;37.70;;;;;;5053785;28;20482;-83
2022/03/10 00:49:11;;;;;;;2.50;2.30;;;25.60;37.80;;;;;;5054112;28;20444;-83
2022/03/10 00:51:38;;;;;;;4.63;2.33;;;25.50;37.80;;;;;;5053896;28;20802;-84
2022/03/10 00:54:05;;;;;;;2.13;2.00;;;25.50;37.80;;;;;;5053829;28;20446;-87
2022/03/10 00:56:32;;;;;;;2.90;2.60;;;25.50;37.80;;;;;;5053618;28;20437;-86
2022/03/10 00:58:58;;;;;;;2.70;2.50;;;25.50;37.80;;;;;;5053836;28;20445;-89
2022/03/10 01:01:25;;;;;;;2.87;2.50;;;25.50;37.80;;;;;;5054214;28;20446;-83
2022/03/10 01:03:52;;;;;;;2.87;2.67;;;25.50;37.80;;;;;;5053806;28;20795;-84
2022/03/10 01:06:20;;;;;;;2.33;2.23;;;25.50;37.80;;;;;;5053477;28;20477;-92
2022/03/10 01:08:47;;;;;;;2.50;2.30;;;25.50;38.40;;;;;;5053796;28;20776;-84
2022/03/10 01:11:14;;;;;;;2.63;2.40;;;25.50;37.80;;;;;;5053849;28;20925;-84
2022/03/10 01:13:40;;;;;;;2.73;2.53;;;25.50;37.80;;;;;;5053765;28;20450;-84
2022/03/10 01:16:07;;;;;;;2.57;2.30;;;25.50;37.90;;;;;;5053803;28;20464;-90
2022/03/10 01:18:34;;;;;;;2.60;2.40;;;25.50;37.90;;;;;;5053368;28;20441;-91
2022/03/10 01:21:01;;;;;;;2.67;2.47;;;25.50;37.90;;;;;;5053545;28;20442;-90
2022/03/10 01:23:29;;;;;;;2.70;2.50;;;25.50;37.90;;;;;;5053569;28;20448;-84
2022/03/10 01:25:56;;;;;;;2.37;2.27;;;25.50;37.90;;;;;;5053271;28;20441;-84
2022/03/10 01:28:22;;;;;;;2.70;2.50;;;25.50;37.90;;;;;;5053125;28;20497;-84
2022/03/10 01:30:49;;;;;;;3.07;2.87;;;25.50;37.90;;;;;;5053509;28;20446;-84
2022/03/10 01:33:16;;;;;;;2.70;2.47;;;25.40;37.80;;;;;;5053436;28;20469;-91
2022/03/10 01:35:43;;;;;;;2.43;2.23;;;25.40;37.80;;;;;;5053221;28;20442;-84
2022/03/10 01:38:09;;;;;;;3.03;2.83;;;25.40;37.80;;;;;;5053279;28;20448;-88
2022/03/10 01:40:38;;;;;;;2.70;2.50;;;25.40;37.90;;;;;;5052945;28;20434;-84
2022/03/10 01:43:04;;;;;;;2.97;2.60;;;25.40;37.90;;;;;;5053317;28;20804;-90
2022/03/10 01:45:31;;;;;;;2.60;2.40;;;25.40;37.90;;;;;;5055358;28;20460;-85
2022/03/10 01:47:58;;;;;;;2.80;2.60;;;25.40;37.90;;;;;;5057194;28;20492;-84
2022/03/10 01:50:25;;;;;;;2.90;2.70;;;25.40;37.90;;;;;;5057448;28;20441;-84
2022/03/10 01:52:52;;;;;;;2.90;2.70;;;25.40;37.90;;;;;;5057406;28;20448;-84
2022/03/10 01:55:20;;;;;;;3.20;3.00;;;25.40;37.90;;;;;;5057132;28;20449;-84
2022/03/10 01:57:49;;;;;;;2.97;2.77;;;25.40;37.90;;;;;;5056965;28;20465;-85
2022/03/10 02:00:17;;;;;;;2.73;2.53;;;25.50;38.00;;;;;;5057201;28;20446;-88
2022/03/10 02:02:44;;;;;;;3.03;2.83;;;25.40;38.00;;;;;;5056760;28;20430;-90
2022/03/10 02:05:11;;;;;;;3.60;3.30;;;25.40;37.90;;;;;;5056950;28;20447;-84
2022/03/10 02:10:24;;;;;;;3.53;2.77;;;25.40;37.90;;;;;;5057115;28;20416;-91
2022/03/10 02:12:53;;;;;;;3.07;2.87;;;25.40;38.00;;;;;;5056861;28;20433;-89
2022/03/10 02:18:06;;;;;;;3.17;2.97;;;25.40;38.00;;;;;;5057025;28;20426;-91
2022/03/10 02:20:34;;;;;;;3.20;2.93;;;25.30;37.90;;;;;;5056905;28;20444;-91
2022/03/10 02:23:02;;;;;;;2.97;2.77;;;25.30;37.90;;;;;;5056613;28;20514;-84
2022/03/10 02:25:29;;;;;;;3.30;3.10;;;25.30;37.90;;;;;;5056669;28;20433;-84
2022/03/10 02:27:57;;;;;;;3.00;2.80;;;25.30;37.90;;;;;;5056303;28;20497;-84
2022/03/10 02:30:28;;;;;;;3.20;2.90;;;25.30;37.90;;;;;;5056799;28;20440;-91
2022/03/10 02:32:55;;;;;;;3.47;3.27;;;25.30;37.90;;;;;;5056448;28;20436;-84
2022/03/10 02:35:21;;;;;;;3.73;3.43;;;25.30;37.90;;;;;;5056790;28;20445;-84
2022/03/10 02:37:49;;;;;;;3.03;2.83;;;25.30;38.00;;;;;;5056322;28;20887;-84
2022/03/10 02:40:17;;;;;;;3.80;3.50;;;25.30;38.00;;;;;;5056524;28;20444;-85
2022/03/10 02:42:44;;;;;;;3.00;2.80;;;25.30;38.00;;;;;;5056313;28;20433;-92
2022/03/10 02:45:11;;;;;;;3.30;3.00;;;25.40;38.10;;;;;;5056282;28;20442;-84
2022/03/10 02:47:38;;;;;;;2.90;2.70;;;25.40;38.10;;;;;;5056190;28;20489;-84
2022/03/10 02:50:07;;;;;;;2.80;2.60;;;25.20;38.00;;;;;;5056246;28;20459;-91
2022/03/10 02:52:35;;;;;;;3.90;3.60;;;25.30;38.00;;;;;;5056004;28;20446;-91
2022/03/10 02:55:02;;;;;;;3.20;3.00;;;25.30;38.00;;;;;;5056224;28;20446;-85
2022/03/10 02:57:31;;;;;;;3.83;3.53;;;25.30;38.00;;;;;;5055733;28;20465;-84
2022/03/10 02:59:59;;;;;;;3.27;2.97;;;25.20;38.00;;;;;;5056255;28;20770;-84
2022/03/10 03:02:26;;;;;;;3.90;3.60;;;25.30;38.10;;;;;;5056175;28;20888;-88
2022/03/10 03:04:53;;;;;;;3.00;2.80;;;25.20;38.00;;;;;;5057839;28;20441;-84
2022/03/10 03:07:19;;;;;;;3.40;3.20;;;25.20;38.00;;;;;;5065273;28;20494;-87
2022/03/10 03:09:46;;;;;;;2.87;2.67;;;25.20;38.00;;;;;;5062753;28;20974;-84
2022/03/10 03:12:13;;;;;;;3.33;3.13;;;25.20;38.00;;;;;;5060677;28;20452;-84
2022/03/10 03:14:41;;;;;;;3.37;3.07;;;25.20;38.00;;;;;;5056003;28;20453;-84
2022/03/10 03:17:08;;;;;;;3.53;3.23;;;25.20;38.00;;;;;;5055879;28;20468;-85
2022/03/10 03:19:35;;;;;;;3.40;3.20;;;25.20;38.70;;;;;;5055678;28;20856;-90
2022/03/10 03:22:02;;;;;;;4.23;3.50;;;25.20;38.10;;;;;;5055555;28;20800;-84
2022/03/10 03:24:28;;;;;;;3.40;3.20;;;25.20;38.10;;;;;;5055491;28;20464;-90
2022/03/10 03:26:55;;;;;;;3.23;2.93;;;25.20;38.10;;;;;;5055409;28;20476;-84
2022/03/10 03:29:22;;;;;;;3.03;2.83;;;25.20;38.10;;;;;;5043661;28;20439;-85
2022/03/10 03:32:15;;;;;;;3.40;3.20;;;25.20;38.10;;;;;;5049393;28;20440;-84
2022/03/10 03:34:42;;;;;;;3.20;3.00;;;25.20;38.10;;;;;;5045439;28;20489;-84
2022/03/10 03:37:09;;;;;;;3.50;3.20;;;25.20;38.10;;;;;;5034620;28;20529;-91
2022/03/10 03:39:35;;;;;;;3.20;3.00;;;25.20;38.10;;;;;;5034608;28;20802;-91
2022/03/10 03:42:02;;;;;;;3.70;3.40;;;25.20;38.10;;;;;;5035026;28;20447;-84
2022/03/10 03:44:29;;;;;;;4.20;3.80;;;25.20;38.10;;;;;;5035044;28;20812;-91
2022/03/10 03:46:56;;;;;;;3.80;3.50;;;25.10;38.70;;;;;;5039658;28;20535;-89
2022/03/10 03:49:24;;;;;;;3.73;3.43;;;25.10;38.10;;;;;;5054187;28;20446;-84
2022/03/10 03:51:51;;;;;;;4.30;3.87;;;25.10;38.10;;;;;;5055197;28;20438;-84
2022/03/10 03:54:18;;;;;;;3.70;3.40;;;25.10;38.10;;;;;;5054490;28;20449;-90
2022/03/10 03:56:45;;;;;;;3.30;3.10;;;25.10;38.10;;;;;;5054974;28;20875;-84
2022/03/10 03:59:12;;;;;;;4.40;4.00;;;25.10;38.10;;;;;;5056004;28;20445;-91
2022/03/10 04:01:40;;;;;;;3.43;3.23;;;25.10;38.10;;;;;;5054757;28;20905;-84
2022/03/10 04:04:07;;;;;;;3.27;3.07;;;25.10;38.10;;;;;;5055041;28;20442;-84
2022/03/10 04:06:35;;;;;;;3.77;3.47;;;25.10;38.10;;;;;;5054510;28;20456;-87
2022/03/10 04:09:01;;;;;;;3.20;3.00;;;25.10;38.10;;;;;;5054047;28;20492;-89
2022/03/10 04:11:29;;;;;;;3.80;3.50;;;25.10;38.10;;;;;;5054886;28;20917;-84
2022/03/10 04:13:56;;;;;;;3.97;3.67;;;25.10;38.10;;;;;;5054371;28;20453;-92
2022/03/10 04:16:23;;;;;;;3.50;3.30;;;25.10;38.10;;;;;;5054613;28;20928;-84
2022/03/10 04:18:49;;;;;;;4.60;3.70;;;25.00;38.10;;;;;;5054405;28;20492;-90
2022/03/10 04:21:16;;;;;;;3.30;3.10;;;25.00;38.10;;;;;;5054645;28;20441;-88
2022/03/10 04:23:44;;;;;;;3.93;3.63;;;25.00;38.20;;;;;;5054406;28;20441;-84
2022/03/10 04:26:11;;;;;;;4.20;3.90;;;25.00;38.20;;;;;;5054062;28;20478;-90
2022/03/10 04:28:38;;;;;;;4.17;3.77;;;25.00;38.80;;;;;;5054314;28;20481;-84
2022/03/10 04:31:05;;;;;;;4.07;3.77;;;25.00;38.20;;;;;;5054274;28;20955;-84
2022/03/10 04:33:32;;;;;;;3.67;3.47;;;25.00;38.20;;;;;;5054326;28;20441;-83
2022/03/10 04:35:58;;;;;;;4.00;3.70;;;25.00;38.20;;;;;;5045600;28;20449;-90
2022/03/10 04:38:25;;;;;;;3.07;2.87;;;25.00;38.20;;;;;;5034286;28;20435;-90
2022/03/10 04:40:54;;;;;;;3.90;3.60;;;25.00;38.20;;;;;;5051858;28;20434;-86
2022/03/10 04:43:20;;;;;;;4.00;3.70;;;25.00;38.20;;;;;;5054173;28;20446;-90
2022/03/10 04:45:47;;;;;;;3.40;3.20;;;25.00;38.20;;;;;;5054286;28;20450;-90
2022/03/10 04:48:14;;;;;;;4.33;3.27;;;25.00;38.20;;;;;;5053887;28;20488;-90
2022/03/10 04:50:41;;;;;;;3.87;3.57;;;25.00;38.20;;;;;;5053765;28;20446;-90
2022/03/10 04:53:08;;;;;;;3.80;3.60;;;25.00;38.20;;;;;;5053805;28;20449;-89
2022/03/10 04:55:35;;;;;;;4.03;3.70;;;25.00;38.20;;;;;;5053428;28;20806;-89
2022/03/10 04:58:04;;;;;;;4.20;3.90;;;25.00;38.10;;;;;;5053979;28;20464;-88
2022/03/10 05:00:31;;;;;;;4.60;4.30;;;25.00;38.00;;;;;;5053781;28;20537;-90
2022/03/10 05:02:57;;;;;;;3.90;3.60;;;25.00;38.00;;;;;;5053655;28;20438;-84
2022/03/10 05:05:24;;;;;;;4.00;3.70;;;25.10;38.00;;;;;;5053673;28;21180;-89
2022/03/10 05:07:51;;;;;;;3.80;3.50;;;25.10;37.90;;;;;;5053496;28;21011;-89
2022/03/10 05:10:18;;;;;;;3.50;3.30;;;25.10;37.90;;;;;;5053656;28;20449;-90
2022/03/10 05:12:47;;;;;;;3.80;3.50;;;25.20;37.90;;;;;;5045306;28;20442;-89
2022/03/10 05:15:18;;;;;;;4.13;3.83;;;25.20;37.90;;;;;;5053586;28;20442;-88
2022/03/10 05:17:45;;;;;;;3.93;3.60;;;25.20;37.90;;;;;;5054622;28;20434;-85
2022/03/10 05:20:12;;;;;;;3.83;3.53;;;25.20;37.90;;;;;;5053764;28;20442;-84
2022/03/10 05:22:43;;;;;;;3.87;3.57;;;25.20;37.80;;;;;;5053418;28;20442;-84
2022/03/10 05:25:10;;;;;;;4.17;3.87;;;25.20;37.80;;;;;;5053285;28;20442;-85
2022/03/10 05:27:37;;;;;;;4.60;4.20;;;25.20;37.90;;;;;;5053028;28;20576;-86
2022/03/10 05:30:05;;;;;;;4.00;3.70;;;25.20;37.80;;;;;;5053457;28;20442;-88
2022/03/10 05:32:33;;;;;;;3.60;3.40;;;25.20;37.80;;;;;;5053342;28;20792;-90
2022/03/10 05:35:01;;;;;;;3.90;3.67;;;25.20;37.80;;;;;;5053112;28;20455;-84
2022/03/10 05:37:27;;;;;;;4.30;3.30;;;25.20;38.40;;;;;;5053064;28;20491;-84
2022/03/10 05:39:54;;;;;;;4.43;4.03;;;25.20;37.70;;;;;;5053153;28;20955;-84
2022/03/10 05:42:21;;;;;;;3.20;3.00;;;25.30;37.80;;;;;;5053071;28;20446;-84
2022/03/10 05:44:47;;;;;;;5.63;3.90;;;25.30;37.80;;;;;;5053162;28;20437;-85
2022/03/10 05:47:14;;;;;;;4.27;3.97;;;25.30;37.80;;;;;;5053152;28;20434;-83
2022/03/10 05:49:42;;;;;;;3.70;3.50;;;25.20;37.70;;;;;;5053103;28;20477;-89
2022/03/10 05:52:09;;;;;;;4.00;3.70;;;25.20;37.70;;;;;;5053424;28;20440;-84
2022/03/10 05:54:36;;;;;;;3.70;3.40;;;25.30;37.80;;;;;;5053340;28;20448;-91
2022/03/10 05:57:03;;;;;;;4.80;4.40;;;25.30;37.80;;;;;;5052884;28;20469;-90
2022/03/10 05:59:30;;;;;;;3.77;3.53;;;25.30;37.80;;;;;;5053155;28;20446;-89
2022/03/10 06:01:57;;;;;;;3.70;3.40;;;25.20;37.70;;;;;;5053043;28;20434;-84
2022/03/10 06:04:23;;;;;;;4.60;4.20;;;25.20;37.70;;;;;;5052966;28;20438;-84
2022/03/10 06:06:51;;;;;;;3.80;3.50;;;25.20;37.70;;;;;;5052951;28;20430;-90
2022/03/10 06:09:18;;;;;;;4.47;3.80;;;25.20;37.70;;;;;;5052919;28;20492;-90
2022/03/10 06:11:45;;;;;;;4.23;3.83;;;25.30;37.80;;;;;;5052983;28;20456;-89
2022/03/10 06:14:12;;;;;;;4.00;3.70;;;25.30;37.70;;;;;;5052810;28;20444;-84
2022/03/10 06:16:39;;;;;;;3.37;3.17;;;25.30;37.70;;;;;;5052823;28;20445;-83
2022/03/10 06:19:06;;;;;;;4.13;3.83;;;25.30;37.70;;;;;;5052944;28;20600;-84
2022/03/10 06:21:34;;;;;;;3.53;3.33;;;25.40;37.70;;;;;;5052816;28;20442;-83
2022/03/10 06:24:02;;;;;;;4.30;3.90;;;25.30;37.60;;;;;;5053042;28;20450;-89
2022/03/10 06:26:29;;;;;;;4.97;4.57;;;25.40;37.70;;;;;;5034534;28;20474;-88
2022/03/10 06:28:56;;;;;;;4.83;4.43;;;25.40;37.60;;;;;;5033054;28;20500;-91
2022/03/10 06:31:24;;;;;;;4.40;4.03;;;25.40;37.50;;;;;;5034239;28;20442;-83
2022/03/10 06:33:51;;;;;;;4.90;4.40;;;25.40;37.50;;;;;;5036599;28;20448;-89
2022/03/10 06:36:18;;;;;;;4.03;3.73;;;25.40;37.70;;;;;;5036370;28;20438;-84
2022/03/10 06:38:45;;;;;;;5.03;4.63;;;25.30;37.70;;;;;;5036884;28;20434;-83
2022/03/10 06:41:13;;;;;;;4.43;4.03;;;25.40;37.70;;;;;;5036529;28;20435;-85
2022/03/10 06:43:39;;;;;;;4.40;4.10;;;25.50;37.90;;;;;;5036511;28;20446;-84
2022/03/10 06:46:06;;;;;;;5.00;4.60;;;25.40;38.00;;;;;;5036417;28;20599;-84
2022/03/10 06:48:34;;;;;;;4.30;3.90;;;25.40;38.00;;;;;;5035620;28;20569;-89
2022/03/10 06:51:01;;;;;;;4.10;3.80;;;25.40;38.20;;;;;;5025432;28;20450;-84
2022/03/10 06:53:28;;;;;;;4.27;3.97;;;25.40;38.30;;;;;;5035588;28;20431;-84
2022/03/10 06:55:55;;;;;;;9.70;4.57;;;25.40;38.30;;;;;;5036057;28;20450;-86
2022/03/10 06:58:23;;;;;;;7.00;4.80;;;25.40;38.30;;;;;;5035974;28;20461;-86
2022/03/10 07:00:50;;;;;;;4.80;4.40;;;25.40;38.20;;;;;;5036015;28;20438;-83
2022/03/10 07:03:17;;;;;;;4.53;4.13;;;25.50;38.20;;;;;;5036147;28;20434;-86
2022/03/10 07:05:44;;;;;;;4.30;3.90;;;25.50;38.40;;;;;;5035809;28;21066;-83
2022/03/10 07:08:11;;;;;;;3.87;3.57;;;25.50;38.50;;;;;;5035091;28;20478;-87
2022/03/10 07:10:38;;;;;;;6.47;4.03;;;25.50;38.40;;;;;;5036055;28;20435;-84
2022/03/10 07:13:05;;;;;;;4.53;4.13;;;25.80;38.30;;;;;;5035799;28;20474;-89
2022/03/10 07:15:33;;;;;;;4.40;4.00;;;26.20;38.20;;;;;;5035769;28;20610;-84
2022/03/10 07:18:00;;;;;;;4.40;4.00;;;26.80;37.80;;;;;;5035949;28;20442;-84
2022/03/10 07:20:27;;;;;;;5.50;5.00;;;27.40;37.30;;;;;;5035982;28;20450;-85
2022/03/10 07:22:54;;;;;;;4.13;3.80;;;27.90;36.80;;;;;;5035570;28;20533;-84
2022/03/10 07:25:21;;;;;;;4.10;3.90;;;28.50;36.50;;;;;;5035617;28;20473;-84
2022/03/10 07:27:48;;;;;;;4.50;4.10;;;28.60;36.20;;;;;;5052280;28;20592;-88
2022/03/10 07:30:15;;;;;;;3.87;3.57;;;28.40;36.40;;;;;;5050519;28;20482;-84
2022/03/10 07:32:43;;;;;;;4.10;3.80;;;28.10;36.60;;;;;;5034929;28;20442;-81
2022/03/10 07:35:10;;;;;;;4.60;4.20;;;27.90;36.90;;;;;;5035447;28;20443;-85
2022/03/10 07:37:37;;;;;;;5.47;4.37;;;27.70;37.10;;;;;;5035146;28;20911;-86
2022/03/10 07:40:04;;;;;;;4.13;3.83;;;27.40;37.40;;;;;;5034727;28;20453;-89
2022/03/10 07:42:32;;;;;;;5.50;3.43;;;27.20;37.50;;;;;;5034278;28;21241;-84
2022/03/10 07:44:58;;;;;;;4.20;3.80;;;27.10;37.80;;;;;;5034649;28;20501;-86
2022/03/10 07:47:25;;;;;;;3.87;3.47;;;27.00;38.00;;;;;;5035481;28;20443;-89
2022/03/10 07:49:53;;;;;;;3.93;3.63;;;26.90;38.00;;;;;;5034718;28;20497;-86
2022/03/10 07:52:20;;;;;;;3.83;3.53;;;26.80;38.80;;;;;;5035191;28;20498;-91
2022/03/10 07:54:47;;;;;;;4.17;3.70;;;26.70;38.30;;;;;;5035171;28;20439;-85
2022/03/10 07:57:14;;;;;;;4.50;4.20;;;26.70;38.70;;;;;;5035073;28;20450;-85
2022/03/10 07:59:41;;;;;;;4.07;3.77;;;26.60;39.70;;;;;;5049000;28;20434;-89
2022/03/10 08:02:08;;;;;;;3.83;3.53;;;26.60;39.40;;;;;;5054598;28;20426;-85
2022/03/10 08:04:34;;;;;;;3.97;3.63;;;26.60;39.50;;;;;;5035192;28;20450;-86
2022/03/10 08:07:03;;;;;;;4.77;4.27;;;26.50;39.50;;;;;;5040373;28;20806;-86
2022/03/10 08:09:30;;;;;;;3.97;3.67;;;26.50;39.30;;;;;;5034673;28;20498;-86
2022/03/10 08:11:56;;;;;;;5.20;4.07;;;26.50;39.00;;;;;;5050871;28;20525;-86
2022/03/10 08:14:24;;;;;;;4.10;3.80;;;26.50;38.80;;;;;;5043377;28;20442;-87
2022/03/10 08:16:52;;;;;;;4.50;4.10;;;26.50;38.80;;;;;;5034659;28;20914;-86
2022/03/10 08:19:19;;;;;;;6.43;3.90;;;26.50;39.40;;;;;;5034538;28;20434;-86
2022/03/10 08:21:47;;;;;;;4.37;4.03;;;26.50;38.70;;;;;;5034777;28;20443;-86
2022/03/10 08:24:15;;;;;;;4.40;4.10;;;26.50;38.70;;;;;;5034562;28;20438;-86
2022/03/10 08:26:43;;;;;;;4.60;4.20;;;26.50;38.70;;;;;;5034325;28;20474;-86
2022/03/10 08:29:10;;;;;;;3.93;3.63;;;26.50;38.80;;;;;;5034357;28;20486;-86
2022/03/10 08:31:37;;;;;;;5.10;4.17;;;26.50;38.80;;;;;;5034127;28;20446;-87
2022/03/10 08:34:03;;;;;;;4.43;4.13;;;26.50;38.90;;;;;;5034136;28;20451;-86
2022/03/10 08:36:31;;;;;;;4.27;3.87;;;26.60;39.00;;;;;;5033893;28;20446;-85
2022/03/10 08:38:58;;;;;;;4.33;3.93;;;26.60;38.90;;;;;;5034006;28;20538;-86
2022/03/10 08:41:26;;;;;;;6.97;3.67;;;26.60;39.00;;;;;;5034219;28;20439;-88
2022/03/10 08:43:53;;;;;;;4.27;3.87;;;26.70;38.90;;;;;;5034029;28;20953;-88
2022/03/10 08:46:19;;;;;;;4.40;4.10;;;27.10;38.70;;;;;;5033962;28;20453;-88
2022/03/10 08:48:46;;;;;;;3.90;3.60;;;27.70;38.30;;;;;;5034062;28;20474;-87
2022/03/10 08:51:13;;;;;;;4.60;4.20;;;28.30;37.80;;;;;;5034199;28;20446;-88
2022/03/10 08:53:40;;;;;;;5.00;4.60;;;29.00;37.00;;;;;;5033625;28;20794;-84
2022/03/10 08:56:09;;;;;;;4.17;3.87;;;29.50;36.70;;;;;;5033879;28;20855;-86
2022/03/10 08:58:37;;;;;;;4.50;4.10;;;29.60;36.40;;;;;;5033981;28;20493;-88
2022/03/10 09:01:04;;;;;;;4.30;3.90;;;29.50;36.40;;;;;;5033993;28;20442;-88
2022/03/10 09:03:30;;;;;;;3.50;3.20;;;29.50;36.50;;;;;;5033889;28;20446;-86
2022/03/10 09:05:57;;;;;;;4.10;3.77;;;29.60;36.40;;;;;;5033682;28;20442;-86
2022/03/10 09:08:24;;;;;;;4.20;3.70;;;29.70;36.40;;;;;;5033689;28;20446;-86
2022/03/10 09:10:51;;;;;;;4.23;3.93;;;29.60;36.20;;;;;;5033626;28;20489;-84
2022/03/10 09:13:18;;;;;;;4.27;3.97;;;29.70;36.30;;;;;;5033685;28;20451;-86
2022/03/10 09:15:46;;;;;;;4.13;3.80;;;29.60;36.40;;;;;;5034204;28;20918;-86
2022/03/10 09:18:14;;;;;;;6.00;3.87;;;29.40;36.40;;;;;;5033757;28;20500;-89
2022/03/10 09:20:41;;;;;;;3.50;3.20;;;29.40;36.60;;;;;;5033507;28;20976;-89
2022/03/10 09:23:07;;;;;;;4.80;3.80;;;28.90;36.70;;;;;;5033532;28;20934;-88
2022/03/10 09:25:35;;;;;;;3.77;3.47;;;28.70;36.90;;;;;;5033291;28;20541;-88
2022/03/10 09:28:01;;;;;;;4.67;4.13;;;28.50;37.10;;;;;;5052510;28;20929;-86
2022/03/10 09:30:28;;;;;;;4.07;3.77;;;28.50;37.30;;;;;;5053740;28;20496;-86
2022/03/10 09:32:57;;;;;;;3.70;3.40;;;28.40;37.30;;;;;;5053405;28;20481;-87
2022/03/10 09:35:25;;;;;;;3.30;3.10;;;28.40;37.40;;;;;;5053243;28;20468;-89
2022/03/10 09:37:52;;;;;;;4.10;3.80;;;28.30;37.50;;;;;;5053401;28;20453;-86
2022/03/10 09:40:19;;;;;;;3.90;3.60;;;28.20;37.60;;;;;;5053503;28;20438;-86
2022/03/10 09:42:48;;;;;;;3.47;3.17;;;28.10;37.60;;;;;;5053395;28;20812;-88
2022/03/10 09:45:16;;;;;;;3.50;3.30;;;28.10;37.80;;;;;;5053283;28;20446;-86
2022/03/10 09:47:44;;;;;;;3.23;2.93;;;28.10;37.90;;;;;;5053518;28;20787;-88
2022/03/10 09:50:14;;;;;;;3.40;3.20;;;28.00;37.90;;;;;;5053402;28;20477;-86
2022/03/10 09:52:42;;;;;;;4.03;3.50;;;28.00;38.00;;;;;;5053851;28;20438;-88
2022/03/10 09:55:10;;;;;;;3.47;3.17;;;28.00;38.10;;;;;;5053135;28;20450;-87
2022/03/10 09:57:39;;;;;;;4.37;3.03;;;28.00;38.10;;;;;;5053018;28;20469;-88
2022/03/10 10:00:07;;;;;;;3.10;2.90;;;28.00;38.10;;;;;;5052989;28;20441;-88
2022/03/10 10:02:34;;;;;;;3.40;2.90;;;28.00;38.10;;;;;;5053031;28;20521;-86
2022/03/10 10:05:01;;;;;;;3.80;3.50;;;28.00;38.20;;;;;;5053557;28;20863;-88
2022/03/10 10:07:29;;;;;;;3.57;3.10;;;28.00;38.20;;;;;;5056644;28;20959;-89
2022/03/10 10:09:58;;;;;;;3.33;3.13;;;28.00;38.20;;;;;;5057419;28;20495;-88
2022/03/10 10:12:27;;;;;;;3.20;2.87;;;28.00;38.20;;;;;;5056933;28;20932;-86
2022/03/10 10:14:54;;;;;;;6.20;3.87;;;28.00;38.30;;;;;;5056933;28;20472;-86
2022/03/10 10:17:28;;;;;;;3.10;2.90;;;28.00;38.30;;;;;;5057083;28;20449;-87
2022/03/10 10:19:56;;;;;;;3.33;3.13;;;28.00;38.30;;;;;;5056969;28;20441;-88
2022/03/10 10:22:24;;;;;;;3.60;3.30;;;28.00;38.30;;;;;;5056650;28;20503;-86
2022/03/10 10:24:53;;;;;;;3.77;3.47;;;28.00;38.30;;;;;;5056552;28;20444;-86
2022/03/10 10:27:22;;;;;;;3.70;3.37;;;28.00;38.30;;;;;;5056310;28;20484;-87
2022/03/10 10:29:50;;;;;;;3.13;2.90;;;28.00;38.30;;;;;;5056935;28;20500;-88
2022/03/10 10:32:26;;;;;;;3.20;3.00;;;28.10;38.40;;;;;;5056588;28;20445;-88
2022/03/10 10:35:00;;;;;;;3.33;3.03;;;28.10;38.40;;;;;;5056577;28;20532;-86
2022/03/10 10:37:27;;;;;;;3.13;2.93;;;28.10;38.40;;;;;;5056492;28;20430;-88
2022/03/10 10:39:58;;;;;;;3.60;3.40;;;28.10;38.40;;;;;;5056664;28;20441;-86
2022/03/10 10:42:27;;;;;;;3.17;2.53;;;28.20;38.40;;;;;;5056717;28;20835;-88
2022/03/10 10:44:54;;;;;;;3.13;2.93;;;28.20;38.40;;;;;;5056153;28;20441;-86
2022/03/10 10:47:21;;;;;;;2.77;2.57;;;28.20;38.40;;;;;;5056409;28;20441;-86
2022/03/10 10:50:00;;;;;;;3.20;3.00;;;28.20;38.40;;;;;;5056283;28;20485;-86
2022/03/10 10:52:37;;;;;;;3.67;2.80;;;28.30;38.50;;;;;;5056338;28;20450;-86
2022/03/10 10:55:07;;;;;;;3.20;2.87;;;28.30;38.50;;;;;;5056024;28;20944;-87
2022/03/10 10:57:35;;;;;;;2.60;2.40;;;28.30;38.50;;;;;;5056338;28;20465;-88
2022/03/10 11:00:11;;;;;;;3.00;2.80;;;28.30;38.50;;;;;;5055987;28;20438;-86
2022/03/10 11:02:42;;;;;;;3.40;3.10;;;28.30;38.60;;;;;;5056156;28;20442;-88
2022/03/10 11:05:11;;;;;;;6.93;3.00;;;28.30;38.60;;;;;;5055891;28;20932;-88
2022/03/10 11:07:40;;;;;;;2.90;2.70;;;28.30;38.60;;;;;;5055922;28;20441;-88
2022/03/10 11:10:09;;;;;;;2.93;2.63;;;28.30;38.60;;;;;;5055660;28;20577;-88
2022/03/10 11:12:39;;;;;;;2.83;2.63;;;28.30;38.60;;;;;;5056073;28;20441;-88
2022/03/10 11:15:08;;;;;;;2.80;2.60;;;28.40;38.70;;;;;;5056528;28;20434;-88
2022/03/10 11:17:35;;;;;;;2.67;2.47;;;28.40;38.60;;;;;;5055404;28;20442;-87
2022/03/10 11:20:06;;;;;;;3.90;3.57;;;28.40;38.70;;;;;;5055809;28;20495;-86
2022/03/10 11:22:46;;;;;;;2.60;2.43;;;28.50;38.70;;;;;;5055754;28;20946;-88
2022/03/10 11:25:38;;;;;;;3.43;3.13;;;28.40;38.70;;;;;;5055596;28;20453;-88
2022/03/10 11:28:10;;;;;;;3.77;3.47;;;28.40;38.70;;;;;;5055496;28;20508;-88
2022/03/10 11:30:37;;;;;;;2.80;2.60;;;28.40;38.80;;;;;;5055296;28;20474;-86
2022/03/10 11:33:06;;;;;;;2.63;2.43;;;28.40;38.80;;;;;;5055387;28;20943;-87
2022/03/10 11:35:38;;;;;;;3.07;2.77;;;28.40;38.80;;;;;;5055405;28;20442;-86
2022/03/10 11:38:05;;;;;;;2.97;2.77;;;28.40;38.80;;;;;;5055327;28;20446;-86
2022/03/10 11:40:52;;;;;;;2.80;2.60;;;28.40;38.80;;;;;;5055291;28;20529;-86
2022/03/10 11:43:31;;;;;;;2.70;2.50;;;28.40;38.90;;;;;;5055208;28;20438;-87
2022/03/10 11:46:20;;;;;;;2.90;2.70;;;28.40;38.90;;;;;;5055386;28;20767;-86
2022/03/10 11:49:05;;;;;;;3.17;2.87;;;28.40;38.90;;;;;;5055040;28;20456;-86
2022/03/10 11:51:46;;;;;;;2.70;2.50;;;28.40;38.90;;;;;;5055047;28;20485;-87
2022/03/10 11:54:17;;;;;;;2.73;2.53;;;28.40;39.00;;;;;;5055071;28;20422;-87
2022/03/10 11:57:04;;;;;;;2.37;2.27;;;28.40;39.00;;;;;;5055082;28;20805;-88
2022/03/10 11:59:47;;;;;;;2.73;2.47;;;28.50;39.00;;;;;;5054474;28;20453;-87
2022/03/10 12:02:44;;;;;;;2.43;2.20;;;28.50;39.00;;;;;;5054849;28;20437;-85
2022/03/10 12:05:13;;;;;;;2.70;2.50;;;28.50;39.00;;;;;;4974157;28;20798;-86
2022/03/10 12:07:45;;;;;;;2.70;2.50;;;28.50;39.10;;;;;;5037252;28;20441;-86
2022/03/10 12:10:14;;;;;;;2.80;2.60;;;28.50;39.10;;;;;;5054822;28;20478;-86
2022/03/10 12:12:45;;;;;;;3.20;2.90;;;28.60;39.00;;;;;;5054940;28;20445;-86
2022/03/10 12:15:49;;;;;;;2.50;2.30;;;28.60;39.10;;;;;;5054652;28;20448;-88
2022/03/10 12:18:21;;;;;;;1.90;1.80;;;28.60;39.00;;;;;;5054751;28;20788;-86
2022/03/10 12:20:50;;;;;;;2.40;2.30;;;28.50;39.10;;;;;;5054743;28;20437;-86
2022/03/10 12:23:19;;;;;;;2.23;2.03;;;28.50;39.10;;;;;;5054779;28;20442;-86
2022/03/10 12:25:48;;;;;;;2.20;2.10;;;28.60;39.10;;;;;;5054081;28;20434;-88
2022/03/10 12:28:29;;;;;;;2.20;2.10;;;28.60;39.10;;;;;;5053579;28;20434;-87
2022/03/10 12:31:14;;;;;;;2.10;2.00;;;28.70;39.10;;;;;;5054435;28;20485;-86
2022/03/10 12:33:46;;;;;;;2.27;2.07;;;28.70;39.10;;;;;;5054331;28;20449;-86
2022/03/10 12:36:15;;;;;;;2.00;1.90;;;28.60;39.10;;;;;;5054367;28;20971;-86
2022/03/10 12:38:45;;;;;;;2.43;2.23;;;28.60;39.10;;;;;;5054176;28;20801;-86
2022/03/10 12:41:14;;;;;;;1.93;1.83;;;28.60;39.10;;;;;;5054204;28;20450;-87
2022/03/10 12:43:43;;;;;;;1.93;1.80;;;28.70;39.10;;;;;;5054020;28;20446;-86
2022/03/10 12:46:10;;;;;;;2.10;1.90;;;28.70;39.20;;;;;;5054477;28;20474;-87
2022/03/10 12:48:45;;;;;;;1.93;1.77;;;28.70;39.10;;;;;;5054508;28;20433;-86
2022/03/10 12:51:24;;;;;;;1.77;1.63;;;28.70;39.10;;;;;;5054208;28;20491;-86
2022/03/10 12:53:52;;;;;;;2.00;1.90;;;28.70;39.10;;;;;;5054202;28;20528;-86
2022/03/10 12:56:19;;;;;;;2.30;2.10;;;28.70;39.10;;;;;;5053802;28;20466;-88
2022/03/10 12:58:48;;;;;;;3.03;2.00;;;28.70;39.10;;;;;;5053883;28;20491;-86